sensor_id;sensor_type;location;lat;lon;timestamp;pressure;altitude;pressure_sealevel;temperature;humidity
6942;BME280;3510;43.200;27.920;2023-07-20T00:02:07;100437.19;;;35.18;36.08
6942;BME280;3510;43.200;27.920;2023-07-20T00:04:34;100431.19;;;35.86;34.69
6942;BME280;3510;43.200;27.920;2023-07-20T00:07:01;100436.00;;;36.03;34.79
6942;BME280;3510;43.200;27.920;2023-07-20T00:09:28;100423.72;;;36.05;35.58
6942;BME280;3510;43.200;27.920;2023-07-20T00:11:55;100423.84;;;35.66;35.49
6942;BME280;3510;43.200;27.920;2023-07-20T00:14:21;100417.47;;;35.76;35.47
6942;BME280;3510;43.200;27.920;2023-07-20T00:16:49;100422.56;;;35.82;35.52
6942;BME280;3510;43.200;27.920;2023-07-20T00:19:21;100421.97;;;36.04;35.17
6942;BME280;3510;43.200;27.920;2023-07-20T00:21:48;100425.50;;;36.03;35.11
6942;BME280;3510;43.200;27.920;2023-07-20T00:24:14;100424.25;;;35.83;35.92
6942;BME280;3510;43.200;27.920;2023-07-20T00:26:42;100423.91;;;35.96;36.03
6942;BME280;3510;43.200;27.920;2023-07-20T00:29:08;100434.53;;;35.91;36.20
6942;BME280;3510;43.200;27.920;2023-07-20T00:31:35;100430.72;;;35.33;37.95
6942;BME280;3510;43.200;27.920;2023-07-20T00:34:02;100443.63;;;35.05;38.64
6942;BME280;3510;43.200;27.920;2023-07-20T00:36:28;100434.75;;;34.70;39.51
6942;BME280;3510;43.200;27.920;2023-07-20T00:38:55;100438.84;;;34.40;40.86
6942;BME280;3510;43.200;27.920;2023-07-20T00:41:21;100429.91;;;34.52;39.73
6942;BME280;3510;43.200;27.920;2023-07-20T00:43:49;100420.63;;;34.79;38.54
6942;BME280;3510;43.200;27.920;2023-07-20T00:46:16;100422.66;;;35.42;37.72
6942;BME280;3510;43.200;27.920;2023-07-20T00:48:42;100410.66;;;35.69;37.15
6942;BME280;3510;43.200;27.920;2023-07-20T00:51:09;100406.59;;;35.57;37.55
6942;BME280;3510;43.200;27.920;2023-07-20T00:53:37;100411.75;;;35.25;38.40
6942;BME280;3510;43.200;27.920;2023-07-20T00:56:03;100424.97;;;34.80;40.08
6942;BME280;3510;43.200;27.920;2023-07-20T00:58:30;100435.72;;;34.21;41.87
6942;BME280;3510;43.200;27.920;2023-07-20T01:00:58;100430.97;;;34.41;41.35
6942;BME280;3510;43.200;27.920;2023-07-20T01:03:24;100433.78;;;34.74;40.69
6942;BME280;3510;43.200;27.920;2023-07-20T01:05:51;100426.63;;;34.40;41.48
6942;BME280;3510;43.200;27.920;2023-07-20T01:08:21;100433.31;;;34.55;41.46
6942;BME280;3510;43.200;27.920;2023-07-20T01:10:51;100420.69;;;34.34;41.91
6942;BME280;3510;43.200;27.920;2023-07-20T01:13:20;100416.63;;;34.19;42.78
6942;BME280;3510;43.200;27.920;2023-07-20T01:15:49;100416.34;;;33.85;43.63
6942;BME280;3510;43.200;27.920;2023-07-20T01:18:17;100413.19;;;34.15;43.16
6942;BME280;3510;43.200;27.920;2023-07-20T01:20:44;100410.66;;;34.12;43.76
6942;BME280;3510;43.200;27.920;2023-07-20T01:25:57;100409.31;;;34.35;43.33
6942;BME280;3510;43.200;27.920;2023-07-20T01:28:35;100422.75;;;34.15;43.55
6942;BME280;3510;43.200;27.920;2023-07-20T01:33:43;100431.09;;;33.87;44.52
6942;BME280;3510;43.200;27.920;2023-07-20T01:36:10;100441.19;;;33.58;45.16
6942;BME280;3510;43.200;27.920;2023-07-20T01:38:37;100448.41;;;33.39;45.59
6942;BME280;3510;43.200;27.920;2023-07-20T01:41:03;100453.28;;;33.62;44.44
6942;BME280;3510;43.200;27.920;2023-07-20T01:43:31;100448.38;;;33.42;44.52
6942;BME280;3510;43.200;27.920;2023-07-20T01:45:57;100471.63;;;32.20;46.98
6942;BME280;3510;43.200;27.920;2023-07-20T01:48:24;100500.63;;;31.74;48.73
6942;BME280;3510;43.200;27.920;2023-07-20T01:50:52;100514.84;;;31.15;50.23
6942;BME280;3510;43.200;27.920;2023-07-20T01:53:19;100527.22;;;30.48;51.64
6942;BME280;3510;43.200;27.920;2023-07-20T01:55:45;100515.09;;;30.13;52.27
6942;BME280;3510;43.200;27.920;2023-07-20T01:58:12;100510.75;;;30.40;51.87
6942;BME280;3510;43.200;27.920;2023-07-20T02:00:38;100509.81;;;30.81;51.46
6942;BME280;3510;43.200;27.920;2023-07-20T02:03:05;100520.25;;;30.78;51.45
6942;BME280;3510;43.200;27.920;2023-07-20T02:05:31;100500.31;;;30.68;51.52
6942;BME280;3510;43.200;27.920;2023-07-20T02:07:59;100508.19;;;30.38;52.49
6942;BME280;3510;43.200;27.920;2023-07-20T02:10:26;100514.25;;;30.24;53.07
6942;BME280;3510;43.200;27.920;2023-07-20T02:12:52;100476.16;;;30.38;52.06
6942;BME280;3510;43.200;27.920;2023-07-20T02:15:19;100490.00;;;30.22;52.25
6942;BME280;3510;43.200;27.920;2023-07-20T02:17:46;100484.81;;;30.37;51.85
6942;BME280;3510;43.200;27.920;2023-07-20T02:20:12;100473.53;;;30.36;51.80
6942;BME280;3510;43.200;27.920;2023-07-20T02:22:39;100461.41;;;30.42;51.05
6942;BME280;3510;43.200;27.920;2023-07-20T02:25:08;100469.25;;;30.31;50.81
6942;BME280;3510;43.200;27.920;2023-07-20T02:27:34;100450.91;;;30.72;49.52
6942;BME280;3510;43.200;27.920;2023-07-20T02:30:01;100456.75;;;31.23;47.63
6942;BME280;3510;43.200;27.920;2023-07-20T02:32:28;100452.38;;;31.30;46.97
6942;BME280;3510;43.200;27.920;2023-07-20T02:34:54;100444.44;;;31.50;46.21
6942;BME280;3510;43.200;27.920;2023-07-20T02:37:21;100435.91;;;31.26;46.85
6942;BME280;3510;43.200;27.920;2023-07-20T02:39:47;100428.09;;;31.32;46.42
6942;BME280;3510;43.200;27.920;2023-07-20T02:42:15;100428.94;;;31.38;45.59
6942;BME280;3510;43.200;27.920;2023-07-20T02:44:42;100415.91;;;31.39;45.52
6942;BME280;3510;43.200;27.920;2023-07-20T02:47:09;100429.91;;;31.17;46.14
6942;BME280;3510;43.200;27.920;2023-07-20T02:49:35;100414.44;;;30.92;46.45
6942;BME280;3510;43.200;27.920;2023-07-20T02:52:02;100421.13;;;31.33;45.49
6942;BME280;3510;43.200;27.920;2023-07-20T02:54:28;100400.44;;;31.15;45.62
6942;BME280;3510;43.200;27.920;2023-07-20T02:56:55;100405.47;;;31.42;45.46
6942;BME280;3510;43.200;27.920;2023-07-20T02:59:23;100397.03;;;31.03;46.08
6942;BME280;3510;43.200;27.920;2023-07-20T03:02:03;100396.00;;;31.26;45.68
6942;BME280;3510;43.200;27.920;2023-07-20T03:04:30;100398.06;;;30.82;46.58
6942;BME280;3510;43.200;27.920;2023-07-20T03:06:56;100405.84;;;30.82;46.97
6942;BME280;3510;43.200;27.920;2023-07-20T03:09:24;100393.81;;;30.55;47.00
6942;BME280;3510;43.200;27.920;2023-07-20T03:11:50;100374.63;;;30.84;46.45
6942;BME280;3510;43.200;27.920;2023-07-20T03:14:17;100374.59;;;30.89;46.03
6942;BME280;3510;43.200;27.920;2023-07-20T03:16:45;100372.00;;;30.92;44.94
6942;BME280;3510;43.200;27.920;2023-07-20T03:19:11;100365.66;;;31.34;43.73
6942;BME280;3510;43.200;27.920;2023-07-20T03:21:38;100347.63;;;31.03;44.20
6942;BME280;3510;43.200;27.920;2023-07-20T03:24:06;100347.50;;;31.26;43.50
6942;BME280;3510;43.200;27.920;2023-07-20T03:26:33;100347.03;;;31.77;42.55
6942;BME280;3510;43.200;27.920;2023-07-20T03:29:00;100338.16;;;31.96;42.67
6942;BME280;3510;43.200;27.920;2023-07-20T03:31:26;100327.72;;;32.01;41.99
6942;BME280;3510;43.200;27.920;2023-07-20T03:33:54;100322.41;;;32.09;41.80
6942;BME280;3510;43.200;27.920;2023-07-20T03:36:20;100318.44;;;33.10;39.50
6942;BME280;3510;43.200;27.920;2023-07-20T03:38:47;100310.41;;;33.70;38.32
6942;BME280;3510;43.200;27.920;2023-07-20T03:41:15;100304.34;;;34.55;36.69
6942;BME280;3510;43.200;27.920;2023-07-20T03:43:55;100302.34;;;35.70;34.59
6942;BME280;3510;43.200;27.920;2023-07-20T03:46:35;100291.28;;;35.26;35.88
6942;BME280;3510;43.200;27.920;2023-07-20T03:49:03;100299.78;;;36.01;34.97
6942;BME280;3510;43.200;27.920;2023-07-20T03:51:44;100287.06;;;35.55;35.92
6942;BME280;3510;43.200;27.920;2023-07-20T03:54:10;100261.44;;;35.33;36.57
6942;BME280;3510;43.200;27.920;2023-07-20T03:56:37;100254.78;;;35.85;35.97
6942;BME280;3510;43.200;27.920;2023-07-20T03:59:03;100253.56;;;35.97;35.70
6942;BME280;3510;43.200;27.920;2023-07-20T04:01:30;100257.16;;;36.24;35.02
6942;BME280;3510;43.200;27.920;2023-07-20T04:04:01;100258.53;;;36.91;33.43
6942;BME280;3510;43.200;27.920;2023-07-20T04:06:29;100273.53;;;36.87;33.03
6942;BME280;3510;43.200;27.920;2023-07-20T04:08:56;100294.41;;;36.90;33.13
6942;BME280;3510;43.200;27.920;2023-07-20T04:11:23;100294.47;;;37.40;31.02
6942;BME280;3510;43.200;27.920;2023-07-20T04:13:50;100300.50;;;37.94;30.47
6942;BME280;3510;43.200;27.920;2023-07-20T04:16:17;100311.41;;;38.52;30.18
6942;BME280;3510;43.200;27.920;2023-07-20T04:18:45;100301.44;;;38.82;29.56
6942;BME280;3510;43.200;27.920;2023-07-20T04:21:12;100311.00;;;38.85;29.78
6942;BME280;3510;43.200;27.920;2023-07-20T04:23:40;100300.44;;;38.41;30.40
6942;BME280;3510;43.200;27.920;2023-07-20T04:26:09;100270.75;;;36.92;32.31
6942;BME280;3510;43.200;27.920;2023-07-20T04:28:38;100291.41;;;36.48;33.63
6942;BME280;3510;43.200;27.920;2023-07-20T04:31:13;100298.66;;;36.68;33.20
6942;BME280;3510;43.200;27.920;2023-07-20T04:33:40;100305.19;;;35.62;35.65
6942;BME280;3510;43.200;27.920;2023-07-20T04:36:07;100287.63;;;35.33;35.60
6942;BME280;3510;43.200;27.920;2023-07-20T04:38:34;100300.56;;;36.05;34.77
6942;BME280;3510;43.200;27.920;2023-07-20T04:41:02;100311.88;;;36.35;33.92
6942;BME280;3510;43.200;27.920;2023-07-20T04:43:28;100332.88;;;36.33;34.44
6942;BME280;3510;43.200;27.920;2023-07-20T04:45:55;100334.53;;;35.75;35.14
6942;BME280;3510;43.200;27.920;2023-07-20T04:48:21;100337.84;;;34.76;36.68
6942;BME280;3510;43.200;27.920;2023-07-20T04:50:47;100349.50;;;35.36;35.92
6942;BME280;3510;43.200;27.920;2023-07-20T04:53:14;100364.41;;;36.32;34.57
6942;BME280;3510;43.200;27.920;2023-07-20T04:55:40;100352.63;;;37.29;32.58
6942;BME280;3510;43.200;27.920;2023-07-20T04:58:17;100346.69;;;37.24;33.43
6942;BME280;3510;43.200;27.920;2023-07-20T05:00:44;100345.09;;;37.70;32.64
6942;BME280;3510;43.200;27.920;2023-07-20T05:03:10;100353.03;;;37.44;32.62
6942;BME280;3510;43.200;27.920;2023-07-20T05:05:37;100361.53;;;36.99;32.62
6942;BME280;3510;43.200;27.920;2023-07-20T05:08:04;100359.44;;;37.35;32.43
6942;BME280;3510;43.200;27.920;2023-07-20T05:10:31;100377.38;;;36.66;33.40
6942;BME280;3510;43.200;27.920;2023-07-20T05:12:58;100366.47;;;38.33;31.35
6942;BME280;3510;43.200;27.920;2023-07-20T05:15:26;100389.47;;;38.97;30.79
6942;BME280;3510;43.200;27.920;2023-07-20T05:17:53;100401.97;;;38.46;32.01
6942;BME280;3510;43.200;27.920;2023-07-20T05:20:20;100417.44;;;37.56;33.48
6942;BME280;3510;43.200;27.920;2023-07-20T05:22:48;100419.53;;;35.28;34.76
6942;BME280;3510;43.200;27.920;2023-07-20T05:25:14;100423.59;;;35.39;34.22
6942;BME280;3510;43.200;27.920;2023-07-20T05:27:44;100400.44;;;35.60;33.30
6942;BME280;3510;43.200;27.920;2023-07-20T05:30:12;100432.75;;;35.59;33.89
6942;BME280;3510;43.200;27.920;2023-07-20T05:32:40;100440.34;;;35.32;34.48
6942;BME280;3510;43.200;27.920;2023-07-20T05:35:08;100419.38;;;36.35;33.30
6942;BME280;3510;43.200;27.920;2023-07-20T05:37:36;100407.63;;;36.50;32.55
6942;BME280;3510;43.200;27.920;2023-07-20T05:40:04;100408.84;;;37.24;31.79
6942;BME280;3510;43.200;27.920;2023-07-20T05:42:31;100404.09;;;37.09;31.83
6942;BME280;3510;43.200;27.920;2023-07-20T05:44:58;100404.72;;;36.87;31.52
6942;BME280;3510;43.200;27.920;2023-07-20T05:47:24;100409.31;;;36.51;32.22
6942;BME280;3510;43.200;27.920;2023-07-20T05:49:53;100350.16;;;35.78;32.53
6942;BME280;3510;43.200;27.920;2023-07-20T05:52:19;100416.44;;;36.15;33.50
6942;BME280;3510;43.200;27.920;2023-07-20T05:54:47;100430.13;;;35.59;34.23
6942;BME280;3510;43.200;27.920;2023-07-20T05:57:43;100352.97;;;35.72;33.43
6942;BME280;3510;43.200;27.920;2023-07-20T06:00:26;100405.41;;;36.34;33.01
6942;BME280;3510;43.200;27.920;2023-07-20T06:03:10;100336.09;;;35.48;33.53
6942;BME280;3510;43.200;27.920;2023-07-20T06:05:45;100354.22;;;36.21;32.98
6942;BME280;3510;43.200;27.920;2023-07-20T06:08:22;100410.22;;;36.79;31.89
6942;BME280;3510;43.200;27.920;2023-07-20T06:11:01;100438.16;;;36.51;32.53
6942;BME280;3510;43.200;27.920;2023-07-20T06:13:39;100397.22;;;36.16;32.40
6942;BME280;3510;43.200;27.920;2023-07-20T06:16:28;100329.91;;;36.16;31.65
6942;BME280;3510;43.200;27.920;2023-07-20T06:18:59;100449.06;;;36.96;31.53
6942;BME280;3510;43.200;27.920;2023-07-20T06:21:54;100406.69;;;36.80;31.84
6942;BME280;3510;43.200;27.920;2023-07-20T06:24:23;100426.13;;;37.03;31.43
6942;BME280;3510;43.200;27.920;2023-07-20T06:30:21;100466.88;;;36.85;32.13
6942;BME280;3510;43.200;27.920;2023-07-20T06:32:54;100332.72;;;35.77;32.59
6942;BME280;3510;43.200;27.920;2023-07-20T06:35:24;100458.59;;;36.07;33.09
6942;BME280;3510;43.200;27.920;2023-07-20T06:37:57;100315.72;;;35.27;31.98
6942;BME280;3510;43.200;27.920;2023-07-20T06:40:25;100406.25;;;35.35;30.68
6942;BME280;3510;43.200;27.920;2023-07-20T06:42:58;100391.03;;;35.53;30.39
6942;BME280;3510;43.200;27.920;2023-07-20T06:45:25;100412.00;;;35.14;30.73
6942;BME280;3510;43.200;27.920;2023-07-20T06:48:11;100406.34;;;34.94;30.47
6942;BME280;3510;43.200;27.920;2023-07-20T06:50:59;100440.59;;;35.59;30.04
6942;BME280;3510;43.200;27.920;2023-07-20T06:53:41;100322.31;;;35.42;30.04
6942;BME280;3510;43.200;27.920;2023-07-20T06:56:08;100387.56;;;35.51;30.31
6942;BME280;3510;43.200;27.920;2023-07-20T06:58:36;100448.34;;;35.98;30.70
6942;BME280;3510;43.200;27.920;2023-07-20T07:01:05;100427.22;;;36.04;30.85
6942;BME280;3510;43.200;27.920;2023-07-20T07:03:33;100396.44;;;36.12;30.43
6942;BME280;3510;43.200;27.920;2023-07-20T07:06:02;100322.97;;;35.51;31.08
6942;BME280;3510;43.200;27.920;2023-07-20T07:08:30;100348.56;;;35.73;31.75
6942;BME280;3510;43.200;27.920;2023-07-20T07:11:01;100370.19;;;36.14;31.73
6942;BME280;3510;43.200;27.920;2023-07-20T07:13:28;100386.50;;;35.58;32.35
6942;BME280;3510;43.200;27.920;2023-07-20T07:15:56;100375.72;;;36.03;32.35
6942;BME280;3510;43.200;27.920;2023-07-20T07:18:25;100335.72;;;37.12;31.42
6942;BME280;3510;43.200;27.920;2023-07-20T07:20:52;100327.72;;;37.66;30.04
6942;BME280;3510;43.200;27.920;2023-07-20T07:23:19;100305.19;;;37.34;30.03
6942;BME280;3510;43.200;27.920;2023-07-20T07:25:46;100274.53;;;37.60;29.00
6942;BME280;3510;43.200;27.920;2023-07-20T07:28:17;100352.28;;;38.61;28.34
6942;BME280;3510;43.200;27.920;2023-07-20T07:30:54;100378.69;;;37.62;29.43
6942;BME280;3510;43.200;27.920;2023-07-20T07:33:23;100324.50;;;35.91;30.24
6942;BME280;3510;43.200;27.920;2023-07-20T07:35:50;100384.31;;;35.75;31.58
6942;BME280;3510;43.200;27.920;2023-07-20T07:38:18;100355.47;;;35.43;31.80
6942;BME280;3510;43.200;27.920;2023-07-20T07:40:44;100294.44;;;35.06;31.86
6942;BME280;3510;43.200;27.920;2023-07-20T07:43:12;100361.72;;;35.71;33.03
6942;BME280;3510;43.200;27.920;2023-07-20T07:45:41;100422.31;;;36.24;33.44
6942;BME280;3510;43.200;27.920;2023-07-20T07:48:09;100411.06;;;36.19;32.21
6942;BME280;3510;43.200;27.920;2023-07-20T07:50:38;100426.28;;;36.69;31.83
6942;BME280;3510;43.200;27.920;2023-07-20T07:53:08;100379.72;;;36.16;32.05
6942;BME280;3510;43.200;27.920;2023-07-20T07:55:35;100412.44;;;36.32;31.95
6942;BME280;3510;43.200;27.920;2023-07-20T07:58:03;100394.69;;;36.13;32.78
6942;BME280;3510;43.200;27.920;2023-07-20T08:00:29;100399.03;;;35.79;31.97
6942;BME280;3510;43.200;27.920;2023-07-20T08:02:57;100402.56;;;36.42;30.56
6942;BME280;3510;43.200;27.920;2023-07-20T08:05:24;100411.94;;;36.20;30.71
6942;BME280;3510;43.200;27.920;2023-07-20T08:07:51;100384.69;;;35.94;30.09
6942;BME280;3510;43.200;27.920;2023-07-20T08:10:18;100411.59;;;36.01;30.33
6942;BME280;3510;43.200;27.920;2023-07-20T08:12:45;100397.72;;;35.96;29.95
6942;BME280;3510;43.200;27.920;2023-07-20T08:15:12;100403.72;;;35.68;30.58
6942;BME280;3510;43.200;27.920;2023-07-20T08:17:40;100402.97;;;35.96;29.75
6942;BME280;3510;43.200;27.920;2023-07-20T08:20:09;100388.78;;;35.72;30.37
6942;BME280;3510;43.200;27.920;2023-07-20T08:22:37;100415.38;;;35.55;30.34
6942;BME280;3510;43.200;27.920;2023-07-20T08:25:05;100418.19;;;36.47;29.74
6942;BME280;3510;43.200;27.920;2023-07-20T08:27:31;100397.69;;;35.65;30.26
6942;BME280;3510;43.200;27.920;2023-07-20T08:29:58;100393.19;;;36.33;29.63
6942;BME280;3510;43.200;27.920;2023-07-20T08:32:26;100405.69;;;36.85;29.44
6942;BME280;3510;43.200;27.920;2023-07-20T08:34:52;100411.66;;;37.46;28.53
6942;BME280;3510;43.200;27.920;2023-07-20T08:37:21;100373.50;;;37.61;27.39
6942;BME280;3510;43.200;27.920;2023-07-20T08:39:48;100407.09;;;37.76;27.81
6942;BME280;3510;43.200;27.920;2023-07-20T08:42:16;100400.34;;;37.69;28.73
6942;BME280;3510;43.200;27.920;2023-07-20T08:44:44;100417.69;;;37.48;29.32
6942;BME280;3510;43.200;27.920;2023-07-20T08:47:13;100415.59;;;37.31;28.97
6942;BME280;3510;43.200;27.920;2023-07-20T08:49:41;100414.84;;;37.27;29.63
6942;BME280;3510;43.200;27.920;2023-07-20T08:52:08;100411.84;;;36.83;30.24
6942;BME280;3510;43.200;27.920;2023-07-20T08:54:38;100410.72;;;37.47;29.32
6942;BME280;3510;43.200;27.920;2023-07-20T08:57:06;100402.47;;;37.58;29.04
6942;BME280;3510;43.200;27.920;2023-07-20T08:59:34;100271.28;;;36.75;28.55
6942;BME280;3510;43.200;27.920;2023-07-20T09:02:04;100278.44;;;36.71;28.31
6942;BME280;3510;43.200;27.920;2023-07-20T09:04:32;100403.50;;;37.53;28.56
6942;BME280;3510;43.200;27.920;2023-07-20T09:06:59;100411.19;;;38.10;26.89
6942;BME280;3510;43.200;27.920;2023-07-20T09:09:27;100360.38;;;37.59;27.12
6942;BME280;3510;43.200;27.920;2023-07-20T09:11:55;100371.75;;;38.10;26.66
6942;BME280;3510;43.200;27.920;2023-07-20T09:14:27;100272.78;;;37.60;26.65
6942;BME280;3510;43.200;27.920;2023-07-20T09:17:08;100349.75;;;38.81;25.96
6942;BME280;3510;43.200;27.920;2023-07-20T09:19:46;100391.84;;;38.36;26.37
6942;BME280;3510;43.200;27.920;2023-07-20T09:22:13;100378.13;;;37.77;27.13
6942;BME280;3510;43.200;27.920;2023-07-20T09:24:41;100314.53;;;37.93;26.29
6942;BME280;3510;43.200;27.920;2023-07-20T09:27:10;100386.97;;;38.70;25.84
6942;BME280;3510;43.200;27.920;2023-07-20T09:29:47;100373.16;;;38.65;25.75
6942;BME280;3510;43.200;27.920;2023-07-20T09:32:19;100351.94;;;38.01;26.39
6942;BME280;3510;43.200;27.920;2023-07-20T09:34:48;100315.38;;;38.62;25.31
6942;BME280;3510;43.200;27.920;2023-07-20T09:37:20;100378.44;;;39.09;25.21
6942;BME280;3510;43.200;27.920;2023-07-20T09:39:48;100261.25;;;38.11;25.93
6942;BME280;3510;43.200;27.920;2023-07-20T09:42:21;100343.72;;;38.78;25.58
6942;BME280;3510;43.200;27.920;2023-07-20T09:44:50;100319.06;;;39.22;25.29
6942;BME280;3510;43.200;27.920;2023-07-20T09:47:22;100373.16;;;40.11;24.41
6942;BME280;3510;43.200;27.920;2023-07-20T09:49:49;100367.22;;;39.68;25.40
6942;BME280;3510;43.200;27.920;2023-07-20T09:52:16;100324.13;;;39.88;24.55
6942;BME280;3510;43.200;27.920;2023-07-20T09:55:02;100359.41;;;39.25;24.97
6942;BME280;3510;43.200;27.920;2023-07-20T09:57:35;100357.25;;;39.12;25.06
6942;BME280;3510;43.200;27.920;2023-07-20T10:00:07;100289.81;;;38.66;25.22
6942;BME280;3510;43.200;27.920;2023-07-20T10:02:42;100338.84;;;39.33;24.74
6942;BME280;3510;43.200;27.920;2023-07-20T10:05:12;100258.72;;;38.32;25.06
6942;BME280;3510;43.200;27.920;2023-07-20T10:07:47;100209.28;;;38.62;24.43
6942;BME280;3510;43.200;27.920;2023-07-20T10:10:16;100343.72;;;39.83;23.79
6942;BME280;3510;43.200;27.920;2023-07-20T10:15:46;100320.72;;;40.05;23.88
6942;BME280;3510;43.200;27.920;2023-07-20T10:18:37;100334.34;;;40.15;23.28
6942;BME280;3510;43.200;27.920;2023-07-20T10:21:09;100251.63;;;39.97;23.21
6942;BME280;3510;43.200;27.920;2023-07-20T10:23:38;100277.72;;;39.84;24.08
6942;BME280;3510;43.200;27.920;2023-07-20T10:26:05;100284.66;;;39.66;24.25
6942;BME280;3510;43.200;27.920;2023-07-20T10:31:12;100302.53;;;40.37;23.72
6942;BME280;3510;43.200;27.920;2023-07-20T10:33:41;100327.25;;;40.17;24.06
6942;BME280;3510;43.200;27.920;2023-07-20T10:36:08;100332.69;;;40.86;23.15
6942;BME280;3510;43.200;27.920;2023-07-20T10:38:38;100324.66;;;40.53;23.66
6942;BME280;3510;43.200;27.920;2023-07-20T10:41:16;100284.06;;;41.09;22.84
6942;BME280;3510;43.200;27.920;2023-07-20T10:43:44;100246.84;;;38.21;31.90
6942;BME280;3510;43.200;27.920;2023-07-20T10:46:36;100256.19;;;38.07;32.01
6942;BME280;3510;43.200;27.920;2023-07-20T10:49:09;100328.09;;;39.58;25.61
6942;BME280;3510;43.200;27.920;2023-07-20T10:51:41;100290.22;;;40.74;27.75
6942;BME280;3510;43.200;27.920;2023-07-20T10:54:33;100314.59;;;40.61;29.99
6942;BME280;3510;43.200;27.920;2023-07-20T10:57:22;100303.81;;;40.66;29.16
6942;BME280;3510;43.200;27.920;2023-07-20T10:59:49;100251.19;;;40.44;29.35
6942;BME280;3510;43.200;27.920;2023-07-20T11:02:19;100322.44;;;40.63;29.67
6942;BME280;3510;43.200;27.920;2023-07-20T11:04:47;100301.91;;;40.32;29.65
6942;BME280;3510;43.200;27.920;2023-07-20T11:07:16;100291.03;;;39.42;31.76
6942;BME280;3510;43.200;27.920;2023-07-20T11:09:45;100240.91;;;39.43;31.14
6942;BME280;3510;43.200;27.920;2023-07-20T11:12:17;100286.47;;;40.60;29.40
6942;BME280;3510;43.200;27.920;2023-07-20T11:14:53;100265.78;;;41.22;28.82
6942;BME280;3510;43.200;27.920;2023-07-20T11:17:29;100225.63;;;40.81;29.80
6942;BME280;3510;43.200;27.920;2023-07-20T11:19:57;100249.47;;;40.43;29.99
6942;BME280;3510;43.200;27.920;2023-07-20T11:22:26;100256.59;;;41.12;29.98
6942;BME280;3510;43.200;27.920;2023-07-20T11:24:55;100240.84;;;40.76;30.67
6942;BME280;3510;43.200;27.920;2023-07-20T11:27:22;100269.34;;;41.21;30.60
6942;BME280;3510;43.200;27.920;2023-07-20T11:29:49;100272.75;;;39.97;31.71
6942;BME280;3510;43.200;27.920;2023-07-20T11:32:20;100260.13;;;40.23;31.94
6942;BME280;3510;43.200;27.920;2023-07-20T11:34:49;100255.56;;;40.26;31.27
6942;BME280;3510;43.200;27.920;2023-07-20T11:37:16;100231.38;;;39.00;31.93
6942;BME280;3510;43.200;27.920;2023-07-20T11:39:43;100250.75;;;38.77;33.86
6942;BME280;3510;43.200;27.920;2023-07-20T11:42:11;100215.31;;;38.86;33.32
6942;BME280;3510;43.200;27.920;2023-07-20T11:44:38;100245.25;;;39.04;33.48
6942;BME280;3510;43.200;27.920;2023-07-20T11:47:08;100245.56;;;40.33;31.46
6942;BME280;3510;43.200;27.920;2023-07-20T11:49:36;100237.91;;;40.09;31.42
6942;BME280;3510;43.200;27.920;2023-07-20T11:52:06;100227.59;;;40.41;31.27
6942;BME280;3510;43.200;27.920;2023-07-20T11:54:34;100253.56;;;40.85;30.52
6942;BME280;3510;43.200;27.920;2023-07-20T11:57:02;100226.97;;;41.40;29.70
6942;BME280;3510;43.200;27.920;2023-07-20T11:59:30;100236.31;;;41.30;29.33
6942;BME280;3510;43.200;27.920;2023-07-20T12:01:57;100205.22;;;42.00;28.47
6942;BME280;3510;43.200;27.920;2023-07-20T12:04:25;100234.81;;;42.38;27.65
6942;BME280;3510;43.200;27.920;2023-07-20T12:06:53;100151.19;;;41.56;27.98
6942;BME280;3510;43.200;27.920;2023-07-20T12:09:21;100242.50;;;42.27;29.13
6942;BME280;3510;43.200;27.920;2023-07-20T12:11:49;100225.25;;;42.66;28.48
6942;BME280;3510;43.200;27.920;2023-07-20T12:14:17;100246.34;;;42.37;28.46
6942;BME280;3510;43.200;27.920;2023-07-20T12:16:52;100247.06;;;42.55;28.65
6942;BME280;3510;43.200;27.920;2023-07-20T12:19:25;100178.56;;;42.19;28.12
6942;BME280;3510;43.200;27.920;2023-07-20T12:21:57;100196.22;;;41.22;29.92
6942;BME280;3510;43.200;27.920;2023-07-20T12:24:29;100238.63;;;41.69;29.02
6942;BME280;3510;43.200;27.920;2023-07-20T12:27:00;100180.84;;;41.95;28.29
6942;BME280;3510;43.200;27.920;2023-07-20T12:29:27;100209.25;;;42.97;27.21
6942;BME280;3510;43.200;27.920;2023-07-20T12:31:55;100198.88;;;43.09;27.64
6942;BME280;3510;43.200;27.920;2023-07-20T12:34:25;100200.81;;;44.45;25.70
6942;BME280;3510;43.200;27.920;2023-07-20T12:36:52;100170.59;;;42.65;26.81
6942;BME280;3510;43.200;27.920;2023-07-20T12:39:18;100203.59;;;43.04;26.76
6942;BME280;3510;43.200;27.920;2023-07-20T12:41:47;100238.72;;;43.93;26.93
6942;BME280;3510;43.200;27.920;2023-07-20T12:44:14;100199.44;;;43.71;25.65
6942;BME280;3510;43.200;27.920;2023-07-20T12:46:41;100157.28;;;42.66;26.80
6942;BME280;3510;43.200;27.920;2023-07-20T12:49:08;100167.59;;;42.71;25.94
6942;BME280;3510;43.200;27.920;2023-07-20T12:51:40;100237.31;;;44.29;25.88
6942;BME280;3510;43.200;27.920;2023-07-20T12:54:07;100231.38;;;43.55;25.95
6942;BME280;3510;43.200;27.920;2023-07-20T12:56:33;100241.47;;;43.77;25.65
6942;BME280;3510;43.200;27.920;2023-07-20T12:59:01;100223.22;;;42.71;26.86
6942;BME280;3510;43.200;27.920;2023-07-20T13:01:31;100217.25;;;40.73;29.11
6942;BME280;3510;43.200;27.920;2023-07-20T13:03:58;100132.09;;;39.60;31.25
6942;BME280;3510;43.200;27.920;2023-07-20T13:06:24;100224.84;;;41.14;29.44
6942;BME280;3510;43.200;27.920;2023-07-20T13:08:51;100225.56;;;41.66;28.83
6942;BME280;3510;43.200;27.920;2023-07-20T13:11:21;100171.47;;;39.63;31.27
6942;BME280;3510;43.200;27.920;2023-07-20T13:13:50;100232.94;;;39.64;32.43
6942;BME280;3510;43.200;27.920;2023-07-20T13:16:18;100225.94;;;40.57;31.36
6942;BME280;3510;43.200;27.920;2023-07-20T13:18:45;100232.91;;;39.84;31.58
6942;BME280;3510;43.200;27.920;2023-07-20T13:21:12;100227.28;;;39.92;32.32
6942;BME280;3510;43.200;27.920;2023-07-20T13:23:39;100210.81;;;40.42;31.03
6942;BME280;3510;43.200;27.920;2023-07-20T13:26:05;100222.34;;;40.22;30.55